sensor_id;sensor_type;location;lat;lon;timestamp;pressure;altitude;pressure_sealevel;temperature;humidity
51359;BME280;37448;51.588;7.248;2023-04-25T00:01:05;100320.59;;;5.30;84.32
51359;BME280;37448;51.588;7.248;2023-04-25T00:03:05;100322.28;;;5.34;85.46
51359;BME280;37448;51.588;7.248;2023-04-25T00:05:06;100318.81;;;5.38;85.94
51359;BME280;37448;51.588;7.248;2023-04-25T00:07:06;100317.06;;;5.40;85.12
51359;BME280;37448;51.588;7.248;2023-04-25T00:09:07;100316.22;;;5.44;86.48
51359;BME280;37448;51.588;7.248;2023-04-25T00:11:09;100317.94;;;5.45;86.35
51359;BME280;37448;51.588;7.248;2023-04-25T00:13:09;100323.13;;;5.44;85.29
51359;BME280;37448;51.588;7.248;2023-04-25T00:15:12;100334.34;;;5.44;85.59
51359;BME280;37448;51.588;7.248;2023-04-25T00:17:12;100328.28;;;5.44;84.58
51359;BME280;37448;51.588;7.248;2023-04-25T00:19:12;100330.03;;;5.43;84.23
51359;BME280;37448;51.588;7.248;2023-04-25T00:21:13;100326.56;;;5.43;83.78
51359;BME280;37448;51.588;7.248;2023-04-25T00:23:15;100333.47;;;5.49;85.64
51359;BME280;37448;51.588;7.248;2023-04-25T00:25:17;100324.84;;;5.43;84.10
51359;BME280;37448;51.588;7.248;2023-04-25T00:27:18;100328.25;;;5.52;85.53
51359;BME280;37448;51.588;7.248;2023-04-25T00:29:18;100324.78;;;5.51;85.92
51359;BME280;37448;51.588;7.248;2023-04-25T00:31:18;100321.34;;;5.49;85.33
51359;BME280;37448;51.588;7.248;2023-04-25T00:33:19;100327.38;;;5.56;87.02
51359;BME280;37448;51.588;7.248;2023-04-25T00:35:19;100317.88;;;5.53;85.87
51359;BME280;37448;51.588;7.248;2023-04-25T00:37:20;100327.38;;;5.53;86.38
51359;BME280;37448;51.588;7.248;2023-04-25T00:39:21;100323.06;;;5.55;86.46
51359;BME280;37448;51.588;7.248;2023-04-25T00:41:22;100317.91;;;5.52;86.06
51359;BME280;37448;51.588;7.248;2023-04-25T00:43:23;100323.06;;;5.55;86.95
51359;BME280;37448;51.588;7.248;2023-04-25T00:45:27;100325.63;;;5.58;87.86
51359;BME280;37448;51.588;7.248;2023-04-25T00:47:29;100320.47;;;5.53;86.63
51359;BME280;37448;51.588;7.248;2023-04-25T00:49:29;100325.63;;;5.58;87.90
51359;BME280;37448;51.588;7.248;2023-04-25T00:51:30;100322.19;;;5.56;86.91
51359;BME280;37448;51.588;7.248;2023-04-25T00:53:32;100327.34;;;5.59;88.02
51359;BME280;37448;51.588;7.248;2023-04-25T00:55:33;100326.50;;;5.58;87.35
51359;BME280;37448;51.588;7.248;2023-04-25T00:57:34;100329.94;;;5.54;86.51
51359;BME280;37448;51.588;7.248;2023-04-25T00:59:36;100324.78;;;5.54;86.99
51359;BME280;37448;51.588;7.248;2023-04-25T01:01:38;100322.16;;;5.59;87.70
51359;BME280;37448;51.588;7.248;2023-04-25T01:03:39;100325.66;;;5.55;87.13
51359;BME280;37448;51.588;7.248;2023-04-25T01:05:43;100329.06;;;5.60;87.58
51359;BME280;37448;51.588;7.248;2023-04-25T01:07:44;100329.94;;;5.59;88.08
51359;BME280;37448;51.588;7.248;2023-04-25T01:09:46;100327.34;;;5.59;86.97
51359;BME280;37448;51.588;7.248;2023-04-25T01:11:46;100331.66;;;5.62;88.34
51359;BME280;37448;51.588;7.248;2023-04-25T01:13:47;100340.28;;;5.64;88.67
51359;BME280;37448;51.588;7.248;2023-04-25T01:15:47;100341.13;;;5.64;88.52
51359;BME280;37448;51.588;7.248;2023-04-25T01:17:48;100335.09;;;5.64;88.25
51359;BME280;37448;51.588;7.248;2023-04-25T01:19:49;100335.09;;;5.62;88.16
51359;BME280;37448;51.588;7.248;2023-04-25T01:21:51;100333.38;;;5.63;88.69
51359;BME280;37448;51.588;7.248;2023-04-25T01:23:52;100337.72;;;5.59;88.22
51359;BME280;37448;51.588;7.248;2023-04-25T01:25:54;100330.78;;;5.61;88.77
51359;BME280;37448;51.588;7.248;2023-04-25T01:27:55;100332.53;;;5.59;88.92
51359;BME280;37448;51.588;7.248;2023-04-25T01:29:56;100329.06;;;5.60;89.66
51359;BME280;37448;51.588;7.248;2023-04-25T01:31:57;100340.28;;;5.59;89.55
51359;BME280;37448;51.588;7.248;2023-04-25T01:33:58;100341.16;;;5.58;89.00
51359;BME280;37448;51.588;7.248;2023-04-25T01:35:59;100333.41;;;5.55;88.76
51359;BME280;37448;51.588;7.248;2023-04-25T01:38:00;100342.94;;;5.53;88.37
51359;BME280;37448;51.588;7.248;2023-04-25T01:40:01;100335.13;;;5.54;88.78
51359;BME280;37448;51.588;7.248;2023-04-25T01:42:02;100329.97;;;5.53;88.33
51359;BME280;37448;51.588;7.248;2023-04-25T01:44:04;100338.59;;;5.55;88.99
51359;BME280;37448;51.588;7.248;2023-04-25T01:46:05;100329.94;;;5.54;88.80
51359;BME280;37448;51.588;7.248;2023-04-25T01:48:05;100347.25;;;5.54;89.08
51359;BME280;37448;51.588;7.248;2023-04-25T01:50:07;100342.94;;;5.50;88.80
51359;BME280;37448;51.588;7.248;2023-04-25T01:52:08;100342.97;;;5.46;88.65
51359;BME280;37448;51.588;7.248;2023-04-25T01:54:10;100351.59;;;5.45;89.06
51359;BME280;37448;51.588;7.248;2023-04-25T01:56:11;100348.16;;;5.46;88.77
51359;BME280;37448;51.588;7.248;2023-04-25T01:58:12;100348.16;;;5.43;88.86
51359;BME280;37448;51.588;7.248;2023-04-25T02:00:29;100354.19;;;5.44;89.42
51359;BME280;37448;51.588;7.248;2023-04-25T02:02:29;100358.50;;;5.40;89.26
51359;BME280;37448;51.588;7.248;2023-04-25T02:04:30;100355.91;;;5.45;90.11
51359;BME280;37448;51.588;7.248;2023-04-25T02:06:31;100355.91;;;5.45;89.89
51359;BME280;37448;51.588;7.248;2023-04-25T02:08:32;100363.66;;;5.50;90.31
51359;BME280;37448;51.588;7.248;2023-04-25T02:10:33;100367.13;;;5.49;89.93
51359;BME280;37448;51.588;7.248;2023-04-25T02:12:53;100374.91;;;5.49;89.79
51359;BME280;37448;51.588;7.248;2023-04-25T02:14:59;100369.72;;;5.49;90.39
51359;BME280;37448;51.588;7.248;2023-04-25T02:17:09;100375.78;;;5.48;89.84
51359;BME280;37448;51.588;7.248;2023-04-25T02:19:10;100379.22;;;5.50;90.35
51359;BME280;37448;51.588;7.248;2023-04-25T02:21:10;100383.50;;;5.49;89.92
51359;BME280;37448;51.588;7.248;2023-04-25T02:23:11;100380.94;;;5.48;89.55
51359;BME280;37448;51.588;7.248;2023-04-25T02:25:12;100378.34;;;5.48;89.74
51359;BME280;37448;51.588;7.248;2023-04-25T02:27:13;100385.28;;;5.45;89.58
51359;BME280;37448;51.588;7.248;2023-04-25T02:29:13;100368.88;;;5.43;88.87
51359;BME280;37448;51.588;7.248;2023-04-25T02:31:16;100377.50;;;5.42;89.22
51359;BME280;37448;51.588;7.248;2023-04-25T02:33:16;100382.69;;;5.42;89.39
51359;BME280;37448;51.588;7.248;2023-04-25T02:35:17;100380.97;;;5.43;89.48
51359;BME280;37448;51.588;7.248;2023-04-25T02:37:17;100384.41;;;5.40;89.27
51359;BME280;37448;51.588;7.248;2023-04-25T02:39:19;100382.69;;;5.42;89.52
51359;BME280;37448;51.588;7.248;2023-04-25T02:41:22;100383.56;;;5.43;89.58
51359;BME280;37448;51.588;7.248;2023-04-25T02:43:22;100388.72;;;5.41;89.86
51359;BME280;37448;51.588;7.248;2023-04-25T02:45:25;100393.03;;;5.42;89.29
51359;BME280;37448;51.588;7.248;2023-04-25T02:47:26;100390.44;;;5.42;90.15
51359;BME280;37448;51.588;7.248;2023-04-25T02:49:26;100394.81;;;5.36;88.56
51359;BME280;37448;51.588;7.248;2023-04-25T02:51:27;100389.59;;;5.37;89.49
51359;BME280;37448;51.588;7.248;2023-04-25T02:53:28;100398.22;;;5.39;89.61
51359;BME280;37448;51.588;7.248;2023-04-25T02:55:28;100388.75;;;5.37;89.55
51359;BME280;37448;51.588;7.248;2023-04-25T02:57:29;100394.78;;;5.37;89.88
51359;BME280;37448;51.588;7.248;2023-04-25T02:59:31;100393.06;;;5.36;89.15
51359;BME280;37448;51.588;7.248;2023-04-25T03:01:31;100393.09;;;5.31;89.21
51359;BME280;37448;51.588;7.248;2023-04-25T03:03:31;100394.81;;;5.34;89.93
51359;BME280;37448;51.588;7.248;2023-04-25T03:05:32;100392.25;;;5.32;89.71
51359;BME280;37448;51.588;7.248;2023-04-25T03:07:33;100389.66;;;5.28;89.07
51359;BME280;37448;51.588;7.248;2023-04-25T03:09:33;100393.97;;;5.30;89.14
51359;BME280;37448;51.588;7.248;2023-04-25T03:11:33;100391.38;;;5.29;88.71
51359;BME280;37448;51.588;7.248;2023-04-25T03:13:34;100392.22;;;5.29;89.52
51359;BME280;37448;51.588;7.248;2023-04-25T03:15:35;100393.13;;;5.27;89.70
51359;BME280;37448;51.588;7.248;2023-04-25T03:17:36;100391.38;;;5.26;89.03
51359;BME280;37448;51.588;7.248;2023-04-25T03:19:36;100389.69;;;5.22;88.93
51359;BME280;37448;51.588;7.248;2023-04-25T03:21:37;100389.69;;;5.22;89.33
51359;BME280;37448;51.588;7.248;2023-04-25T03:23:37;100397.44;;;5.22;89.64
51359;BME280;37448;51.588;7.248;2023-04-25T03:25:38;100398.31;;;5.21;89.29
51359;BME280;37448;51.588;7.248;2023-04-25T03:27:38;100398.31;;;5.21;89.50
51359;BME280;37448;51.588;7.248;2023-04-25T03:29:39;100399.19;;;5.20;89.16
51359;BME280;37448;51.588;7.248;2023-04-25T03:31:40;100401.78;;;5.20;88.95
51359;BME280;37448;51.588;7.248;2023-04-25T03:33:41;100400.88;;;5.17;89.04
51359;BME280;37448;51.588;7.248;2023-04-25T03:35:41;100400.91;;;5.21;89.60
51359;BME280;37448;51.588;7.248;2023-04-25T03:37:43;100402.63;;;5.22;90.01
51359;BME280;37448;51.588;7.248;2023-04-25T03:39:50;100406.09;;;5.21;90.10
51359;BME280;37448;51.588;7.248;2023-04-25T03:41:51;100418.16;;;5.12;89.42
51359;BME280;37448;51.588;7.248;2023-04-25T03:43:52;100419.94;;;5.09;89.68
51359;BME280;37448;51.588;7.248;2023-04-25T03:45:53;100432.88;;;5.04;89.74
51359;BME280;37448;51.588;7.248;2023-04-25T03:47:56;100437.19;;;4.94;90.44
51359;BME280;37448;51.588;7.248;2023-04-25T03:49:56;100437.19;;;4.82;90.31
51359;BME280;37448;51.588;7.248;2023-04-25T03:51:57;100440.69;;;4.73;90.22
51359;BME280;37448;51.588;7.248;2023-04-25T03:53:58;100446.69;;;4.59;89.31
51359;BME280;37448;51.588;7.248;2023-04-25T03:56:04;100445.84;;;4.48;90.01
51359;BME280;37448;51.588;7.248;2023-04-25T03:58:08;100440.66;;;4.45;90.37
51359;BME280;37448;51.588;7.248;2023-04-25T04:00:09;100446.69;;;4.44;89.69
51359;BME280;37448;51.588;7.248;2023-04-25T04:02:15;100438.94;;;4.39;90.40
51359;BME280;37448;51.588;7.248;2023-04-25T04:04:16;100439.78;;;4.40;90.68
51359;BME280;37448;51.588;7.248;2023-04-25T04:06:17;100439.78;;;4.40;91.20
51359;BME280;37448;51.588;7.248;2023-04-25T04:08:23;100442.38;;;4.37;91.16
51359;BME280;37448;51.588;7.248;2023-04-25T04:10:23;100438.94;;;4.36;91.52
51359;BME280;37448;51.588;7.248;2023-04-25T04:12:24;100436.31;;;4.33;90.53
51359;BME280;37448;51.588;7.248;2023-04-25T04:14:24;100438.06;;;4.33;90.79
51359;BME280;37448;51.588;7.248;2023-04-25T04:16:25;100437.22;;;4.37;91.89
51359;BME280;37448;51.588;7.248;2023-04-25T04:18:26;100437.22;;;4.34;91.60
51359;BME280;37448;51.588;7.248;2023-04-25T04:20:28;100438.06;;;4.33;91.06
51359;BME280;37448;51.588;7.248;2023-04-25T04:22:29;100436.34;;;4.35;91.25
51359;BME280;37448;51.588;7.248;2023-04-25T04:24:33;100440.66;;;4.34;91.55
51359;BME280;37448;51.588;7.248;2023-04-25T04:26:36;100444.09;;;4.33;91.33
51359;BME280;37448;51.588;7.248;2023-04-25T04:28:45;100440.63;;;4.31;91.76
51359;BME280;37448;51.588;7.248;2023-04-25T04:31:06;100439.78;;;4.29;91.32
51359;BME280;37448;51.588;7.248;2023-04-25T04:33:08;100447.53;;;4.26;91.62
51359;BME280;37448;51.588;7.248;2023-04-25T04:35:09;100450.97;;;4.28;92.28
51359;BME280;37448;51.588;7.248;2023-04-25T04:37:12;100448.41;;;4.29;92.37
51359;BME280;37448;51.588;7.248;2023-04-25T04:39:13;100450.13;;;4.29;92.40
51359;BME280;37448;51.588;7.248;2023-04-25T04:41:37;100459.59;;;4.30;91.77
51359;BME280;37448;51.588;7.248;2023-04-25T04:44:01;100460.47;;;4.27;92.30
51359;BME280;37448;51.588;7.248;2023-04-25T04:46:10;100463.91;;;4.26;92.02
51359;BME280;37448;51.588;7.248;2023-04-25T04:48:25;100462.19;;;4.25;92.55
51359;BME280;37448;51.588;7.248;2023-04-25T04:50:43;100463.91;;;4.23;92.33
51359;BME280;37448;51.588;7.248;2023-04-25T04:52:56;100469.06;;;4.20;92.05
51359;BME280;37448;51.588;7.248;2023-04-25T04:55:10;100472.50;;;4.16;91.49
51359;BME280;37448;51.588;7.248;2023-04-25T04:57:29;100471.63;;;4.14;91.45
51359;BME280;37448;51.588;7.248;2023-04-25T04:59:50;100478.53;;;4.15;91.66
51359;BME280;37448;51.588;7.248;2023-04-25T05:02:08;100478.53;;;4.15;91.61
51359;BME280;37448;51.588;7.248;2023-04-25T05:04:18;100481.13;;;4.20;92.42
51359;BME280;37448;51.588;7.248;2023-04-25T05:06:41;100486.28;;;4.18;91.48
51359;BME280;37448;51.588;7.248;2023-04-25T05:08:50;100488.06;;;4.22;91.67
51359;BME280;37448;51.588;7.248;2023-04-25T05:11:11;100491.50;;;4.24;91.76
51359;BME280;37448;51.588;7.248;2023-04-25T05:13:22;100488.06;;;4.31;92.33
51359;BME280;37448;51.588;7.248;2023-04-25T05:15:35;100489.81;;;4.37;92.36
51359;BME280;37448;51.588;7.248;2023-04-25T05:17:57;100497.53;;;4.45;91.97
51359;BME280;37448;51.588;7.248;2023-04-25T05:20:06;100500.16;;;4.48;91.62
51359;BME280;37448;51.588;7.248;2023-04-25T05:22:28;100498.44;;;4.56;92.72
51359;BME280;37448;51.588;7.248;2023-04-25T05:24:34;100500.16;;;4.60;92.38
51359;BME280;37448;51.588;7.248;2023-04-25T05:26:46;100502.75;;;4.64;92.30
51359;BME280;37448;51.588;7.248;2023-04-25T05:29:06;100504.47;;;4.65;92.73
51359;BME280;37448;51.588;7.248;2023-04-25T05:31:15;100515.69;;;4.70;92.09
51359;BME280;37448;51.588;7.248;2023-04-25T05:33:34;100519.16;;;4.75;92.55
51359;BME280;37448;51.588;7.248;2023-04-25T05:35:35;100516.56;;;4.78;91.97
51359;BME280;37448;51.588;7.248;2023-04-25T05:37:35;100521.75;;;4.78;91.60
51359;BME280;37448;51.588;7.248;2023-04-25T05:39:43;100520.00;;;4.91;92.91
51359;BME280;37448;51.588;7.248;2023-04-25T05:42:01;100521.75;;;4.89;92.17
51359;BME280;37448;51.588;7.248;2023-04-25T05:44:30;100526.06;;;4.95;91.93
51359;BME280;37448;51.588;7.248;2023-04-25T05:46:50;100532.09;;;5.03;92.56
51359;BME280;37448;51.588;7.248;2023-04-25T05:49:25;100530.34;;;5.03;92.24
51359;BME280;37448;51.588;7.248;2023-04-25T05:51:38;100532.09;;;5.03;91.08
51359;BME280;37448;51.588;7.248;2023-04-25T05:54:07;100535.56;;;5.10;91.62
51359;BME280;37448;51.588;7.248;2023-04-25T05:56:08;100539.00;;;5.12;91.52
51359;BME280;37448;51.588;7.248;2023-04-25T05:58:09;100535.53;;;5.14;91.42
51359;BME280;37448;51.588;7.248;2023-04-25T06:00:10;100543.28;;;5.22;91.39
51359;BME280;37448;51.588;7.248;2023-04-25T06:02:19;100556.25;;;5.31;92.11
51359;BME280;37448;51.588;7.248;2023-04-25T06:04:21;100551.94;;;5.34;92.16
51359;BME280;37448;51.588;7.248;2023-04-25T06:06:22;100553.63;;;5.42;92.04
51359;BME280;37448;51.588;7.248;2023-04-25T06:08:22;100555.34;;;5.50;91.97
51359;BME280;37448;51.588;7.248;2023-04-25T06:10:22;100558.81;;;5.52;91.71
51359;BME280;37448;51.588;7.248;2023-04-25T06:12:23;100560.50;;;5.59;91.59
51359;BME280;37448;51.588;7.248;2023-04-25T06:14:25;100563.09;;;5.62;91.23
51359;BME280;37448;51.588;7.248;2023-04-25T06:16:26;100563.91;;;5.80;90.44
51359;BME280;37448;51.588;7.248;2023-04-25T06:18:26;100562.13;;;6.03;90.15
51359;BME280;37448;51.588;7.248;2023-04-25T06:20:27;100557.75;;;6.16;90.11
51359;BME280;37448;51.588;7.248;2023-04-25T06:22:31;100558.63;;;6.14;88.82
51359;BME280;37448;51.588;7.248;2023-04-25T06:24:32;100556.84;;;6.25;87.99
51359;BME280;37448;51.588;7.248;2023-04-25T06:26:32;100567.94;;;6.51;88.38
51359;BME280;37448;51.588;7.248;2023-04-25T06:28:32;100566.13;;;6.70;90.10
51359;BME280;37448;51.588;7.248;2023-04-25T06:30:33;100568.66;;;6.76;88.36
51359;BME280;37448;51.588;7.248;2023-04-25T06:32:39;100572.97;;;6.82;90.11
51359;BME280;37448;51.588;7.248;2023-04-25T06:34:40;100571.28;;;6.78;89.63
51359;BME280;37448;51.588;7.248;2023-04-25T06:36:40;100569.53;;;6.77;88.97
51359;BME280;37448;51.588;7.248;2023-04-25T06:38:43;100571.34;;;6.67;87.01
51359;BME280;37448;51.588;7.248;2023-04-25T06:40:45;100570.50;;;6.65;87.74
51359;BME280;37448;51.588;7.248;2023-04-25T06:42:46;100570.53;;;6.55;87.47
51359;BME280;37448;51.588;7.248;2023-04-25T06:45:05;100574.06;;;6.45;87.27
51359;BME280;37448;51.588;7.248;2023-04-25T06:47:06;100576.69;;;6.34;86.19
51359;BME280;37448;51.588;7.248;2023-04-25T06:49:06;100574.16;;;6.23;84.52
51359;BME280;37448;51.588;7.248;2023-04-25T06:51:07;100575.00;;;6.24;85.58
51359;BME280;37448;51.588;7.248;2023-04-25T06:53:09;100582.81;;;6.19;86.31
51359;BME280;37448;51.588;7.248;2023-04-25T06:55:10;100586.28;;;6.12;85.45
51359;BME280;37448;51.588;7.248;2023-04-25T06:57:27;100588.06;;;6.08;85.81
51359;BME280;37448;51.588;7.248;2023-04-25T06:59:29;100592.38;;;6.09;85.32
51359;BME280;37448;51.588;7.248;2023-04-25T07:01:30;100586.28;;;6.12;85.91
51359;BME280;37448;51.588;7.248;2023-04-25T07:03:31;100591.50;;;6.09;85.25
51359;BME280;37448;51.588;7.248;2023-04-25T07:05:35;100590.66;;;6.08;85.77
51359;BME280;37448;51.588;7.248;2023-04-25T07:07:36;100596.69;;;6.06;85.31
51359;BME280;37448;51.588;7.248;2023-04-25T07:09:36;100584.56;;;6.14;85.42
51359;BME280;37448;51.588;7.248;2023-04-25T07:11:38;100583.63;;;6.26;85.31
51359;BME280;37448;51.588;7.248;2023-04-25T07:13:38;100587.94;;;6.27;83.12
51359;BME280;37448;51.588;7.248;2023-04-25T07:15:39;100596.56;;;6.37;83.55
51359;BME280;37448;51.588;7.248;2023-04-25T07:17:40;100587.84;;;6.50;83.14
51359;BME280;37448;51.588;7.248;2023-04-25T07:19:41;100589.56;;;6.56;83.10
51359;BME280;37448;51.588;7.248;2023-04-25T07:21:42;100598.16;;;6.63;83.40
51359;BME280;37448;51.588;7.248;2023-04-25T07:23:43;100593.84;;;6.58;81.59
51359;BME280;37448;51.588;7.248;2023-04-25T07:25:48;100597.38;;;6.48;80.14
51359;BME280;37448;51.588;7.248;2023-04-25T07:27:53;100599.97;;;6.51;82.28
51359;BME280;37448;51.588;7.248;2023-04-25T07:29:55;100604.25;;;6.55;81.44
51359;BME280;37448;51.588;7.248;2023-04-25T07:31:57;100603.31;;;6.69;83.57
51359;BME280;37448;51.588;7.248;2023-04-25T07:33:57;100612.00;;;6.65;81.04
51359;BME280;37448;51.588;7.248;2023-04-25T07:35:58;100613.72;;;6.67;82.40
51359;BME280;37448;51.588;7.248;2023-04-25T07:37:58;100615.44;;;6.67;81.48
51359;BME280;37448;51.588;7.248;2023-04-25T07:39:59;100618.88;;;6.72;82.74
51359;BME280;37448;51.588;7.248;2023-04-25T07:41:59;100622.38;;;6.65;80.56
51359;BME280;37448;51.588;7.248;2023-04-25T07:44:03;100622.31;;;6.74;81.09
51359;BME280;37448;51.588;7.248;2023-04-25T07:46:05;100624.06;;;6.75;80.25
51359;BME280;37448;51.588;7.248;2023-04-25T07:48:08;100626.63;;;6.80;77.03
51359;BME280;37448;51.588;7.248;2023-04-25T07:50:11;100627.44;;;6.83;79.93
51359;BME280;37448;51.588;7.248;2023-04-25T07:52:11;100629.13;;;6.94;80.54
51359;BME280;37448;51.588;7.248;2023-04-25T07:54:17;100632.47;;;7.08;80.15
51359;BME280;37448;51.588;7.248;2023-04-25T07:56:22;100633.31;;;7.16;80.06
51359;BME280;37448;51.588;7.248;2023-04-25T07:58:25;100635.75;;;7.32;77.95
51359;BME280;37448;51.588;7.248;2023-04-25T08:00:29;100639.16;;;7.43;77.54
51359;BME280;37448;51.588;7.248;2023-04-25T08:02:50;100639.91;;;7.55;79.90
51359;BME280;37448;51.588;7.248;2023-04-25T08:04:51;100640.69;;;7.65;80.01
51359;BME280;37448;51.588;7.248;2023-04-25T08:06:53;100650.78;;;7.97;80.46
51359;BME280;37448;51.588;7.248;2023-04-25T08:08:58;100651.53;;;8.07;75.38
51359;BME280;37448;51.588;7.248;2023-04-25T08:11:05;100648.84;;;8.15;71.04
51359;BME280;37448;51.588;7.248;2023-04-25T08:13:06;100652.13;;;8.31;73.52
51359;BME280;37448;51.588;7.248;2023-04-25T08:15:07;100656.19;;;8.55;70.75
51359;BME280;37448;51.588;7.248;2023-04-25T08:17:11;100660.22;;;8.81;71.46
51359;BME280;37448;51.588;7.248;2023-04-25T08:19:14;100656.44;;;9.01;72.41
51359;BME280;37448;51.588;7.248;2023-04-25T08:21:15;100658.44;;;9.43;68.13
51359;BME280;37448;51.588;7.248;2023-04-25T08:23:16;100666.84;;;9.59;72.47
51359;BME280;37448;51.588;7.248;2023-04-25T08:25:37;100666.31;;;9.38;70.64
51359;BME280;37448;51.588;7.248;2023-04-25T08:27:38;100670.44;;;8.94;70.81
51359;BME280;37448;51.588;7.248;2023-04-25T08:29:39;100674.81;;;8.93;71.36
51359;BME280;37448;51.588;7.248;2023-04-25T08:31:40;100679.34;;;8.80;71.28
51359;BME280;37448;51.588;7.248;2023-04-25T08:33:42;100691.66;;;8.66;70.42
51359;BME280;37448;51.588;7.248;2023-04-25T08:35:57;100689.19;;;8.53;68.50
51359;BME280;37448;51.588;7.248;2023-04-25T08:37:58;100688.31;;;8.54;69.13
51359;BME280;37448;51.588;7.248;2023-04-25T08:39:59;100682.88;;;8.74;71.99
51359;BME280;37448;51.588;7.248;2023-04-25T08:42:15;100684.94;;;9.12;73.05
51359;BME280;37448;51.588;7.248;2023-04-25T08:44:16;100703.09;;;9.74;70.82
51359;BME280;37448;51.588;7.248;2023-04-25T08:46:19;100695.69;;;10.00;64.81
51359;BME280;37448;51.588;7.248;2023-04-25T08:48:44;100704.16;;;10.13;68.71
51359;BME280;37448;51.588;7.248;2023-04-25T08:50:52;100702.50;;;10.09;67.49
51359;BME280;37448;51.588;7.248;2023-04-25T08:52:54;100698.44;;;9.92;64.30
51359;BME280;37448;51.588;7.248;2023-04-25T08:54:55;100701.50;;;9.66;63.20
51359;BME280;37448;51.588;7.248;2023-04-25T08:56:57;100703.50;;;9.50;65.12
51359;BME280;37448;51.588;7.248;2023-04-25T08:58:58;100711.47;;;9.40;64.24
51359;BME280;37448;51.588;7.248;2023-04-25T09:00:59;100716.50;;;9.53;62.40
51359;BME280;37448;51.588;7.248;2023-04-25T09:03:02;100705.97;;;9.59;59.94
51359;BME280;37448;51.588;7.248;2023-04-25T09:05:06;100712.56;;;9.80;62.51
51359;BME280;37448;51.588;7.248;2023-04-25T09:07:07;100719.78;;;9.66;66.00
51359;BME280;37448;51.588;7.248;2023-04-25T09:09:08;100723.66;;;9.38;63.57
51359;BME280;37448;51.588;7.248;2023-04-25T09:11:12;100718.03;;;9.08;65.83
51359;BME280;37448;51.588;7.248;2023-04-25T09:13:14;100731.38;;;8.83;64.66
51359;BME280;37448;51.588;7.248;2023-04-25T09:15:50;100720.34;;;8.63;66.92
51359;BME280;37448;51.588;7.248;2023-04-25T09:18:42;100742.97;;;8.56;69.69
51359;BME280;37448;51.588;7.248;2023-04-25T09:20:42;100741.41;;;8.38;68.72
51359;BME280;37448;51.588;7.248;2023-04-25T09:22:45;100751.00;;;8.32;71.43
51359;BME280;37448;51.588;7.248;2023-04-25T09:24:46;100739.75;;;8.29;70.23
51359;BME280;37448;51.588;7.248;2023-04-25T09:26:47;100749.28;;;8.28;69.53
51359;BME280;37448;51.588;7.248;2023-04-25T09:28:48;100746.69;;;8.30;68.52
51359;BME280;37448;51.588;7.248;2023-04-25T09:30:55;100749.19;;;8.41;67.26
51359;BME280;37448;51.588;7.248;2023-04-25T09:33:16;100748.97;;;8.61;66.39
51359;BME280;37448;51.588;7.248;2023-04-25T09:35:25;100745.19;;;8.87;64.29
51359;BME280;37448;51.588;7.248;2023-04-25T09:37:29;100741.31;;;9.17;64.51
51359;BME280;37448;51.588;7.248;2023-04-25T09:39:39;100751.59;;;9.28;57.92
51359;BME280;37448;51.588;7.248;2023-04-25T09:41:47;100746.97;;;9.47;60.28
51359;BME280;37448;51.588;7.248;2023-04-25T09:43:48;100751.25;;;9.52;60.47
51359;BME280;37448;51.588;7.248;2023-04-25T09:45:50;100754.41;;;9.74;65.20
51359;BME280;37448;51.588;7.248;2023-04-25T09:47:55;100748.16;;;9.83;54.84
51359;BME280;37448;51.588;7.248;2023-04-25T09:49:59;100747.72;;;10.09;54.00
51359;BME280;37448;51.588;7.248;2023-04-25T09:51:59;100752.41;;;10.84;63.88
51359;BME280;37448;51.588;7.248;2023-04-25T09:54:19;100755.19;;;11.57;66.89
51359;BME280;37448;51.588;7.248;2023-04-25T09:56:23;100754.81;;;12.09;60.77
51359;BME280;37448;51.588;7.248;2023-04-25T09:58:24;100749.44;;;12.78;60.79
51359;BME280;37448;51.588;7.248;2023-04-25T10:00:24;100753.31;;;13.25;62.32
51359;BME280;37448;51.588;7.248;2023-04-25T10:02:27;100768.56;;;13.12;57.78
51359;BME280;37448;51.588;7.248;2023-04-25T10:04:34;100763.63;;;12.71;57.25
51359;BME280;37448;51.588;7.248;2023-04-25T10:06:39;100767.69;;;12.18;57.24
51359;BME280;37448;51.588;7.248;2023-04-25T10:08:43;100760.34;;;11.60;56.14
51359;BME280;37448;51.588;7.248;2023-04-25T10:10:46;100768.00;;;11.30;52.26
51359;BME280;37448;51.588;7.248;2023-04-25T10:12:47;100765.38;;;11.68;53.84
51359;BME280;37448;51.588;7.248;2023-04-25T10:14:47;100765.75;;;11.52;50.15
51359;BME280;37448;51.588;7.248;2023-04-25T10:16:48;100778.28;;;11.38;50.24
51359;BME280;37448;51.588;7.248;2023-04-25T10:19:02;100772.41;;;11.28;55.85
51359;BME280;37448;51.588;7.248;2023-04-25T10:21:04;100781.66;;;11.02;54.45
51359;BME280;37448;51.588;7.248;2023-04-25T10:23:13;100778.41;;;10.90;57.53
51359;BME280;37448;51.588;7.248;2023-04-25T10:25:14;100775.06;;;10.38;50.38
51359;BME280;37448;51.588;7.248;2023-04-25T10:27:15;100784.00;;;10.23;56.40
51359;BME280;37448;51.588;7.248;2023-04-25T10:29:24;100788.97;;;9.87;53.96
51359;BME280;37448;51.588;7.248;2023-04-25T10:31:25;100788.69;;;9.47;55.25
51359;BME280;37448;51.588;7.248;2023-04-25T10:33:40;100786.50;;;9.16;55.43
51359;BME280;37448;51.588;7.248;2023-04-25T10:35:42;100795.44;;;8.97;58.68
51359;BME280;37448;51.588;7.248;2023-04-25T10:38:08;100801.97;;;8.57;57.98
51359;BME280;37448;51.588;7.248;2023-04-25T10:40:09;100815.06;;;8.46;60.90
51359;BME280;37448;51.588;7.248;2023-04-25T10:42:11;100812.56;;;8.35;61.14
51359;BME280;37448;51.588;7.248;2023-04-25T10:44:11;100818.69;;;8.26;61.17
51359;BME280;37448;51.588;7.248;2023-04-25T10:48:30;100826.66;;;8.09;63.93
51359;BME280;37448;51.588;7.248;2023-04-25T10:50:37;100831.97;;;7.97;60.75
51359;BME280;37448;51.588;7.248;2023-04-25T10:52:39;100835.53;;;7.85;62.12
51359;BME280;37448;51.588;7.248;2023-04-25T10:54:47;100843.31;;;7.82;62.00
51359;BME280;37448;51.588;7.248;2023-04-25T10:56:48;100839.03;;;7.76;63.21
51359;BME280;37448;51.588;7.248;2023-04-25T10:58:50;100845.13;;;7.69;63.71
51359;BME280;37448;51.588;7.248;2023-04-25T11:00:50;100831.25;;;7.70;63.65